Time;durP1;ratioP1;P1;durP2;ratioP2;P2;SDS_P1;SDS_P2;PMS_P1;PMS_P2;Temp;Humidity;BMP_temperature;BMP_pressure;BME280_temperature;BME280_humidity;BME280_pressure;Samples;Min_cycle;Max_cycle;Signal;HPM_P1;HPM_P2
2023/09/20 00:00:10;;;;;;;;;;;23.50;74.90;;;;;;5124395;28;19912;-46
2023/09/20 00:02:40;;;;;;;;;;;23.50;74.90;;;;;;5125187;28;19922;-46
2023/09/20 00:05:12;;;;;;;;;;;23.50;75.00;;;;;;5123828;28;19907;-46
2023/09/20 00:07:39;;;;;;;;;;;23.50;74.70;;;;;;5124674;28;19916;-45
2023/09/20 00:10:11;;;;;;;;;;;23.50;74.80;;;;;;5124214;28;19914;-45
2023/09/20 00:12:37;;;;;;;;;;;23.50;74.90;;;;;;5124733;28;20279;-45
2023/09/20 00:15:03;;;;;;;;;;;23.50;74.80;;;;;;5115904;28;19910;-45
2023/09/20 00:17:29;;;;;;;;;;;23.50;75.00;;;;;;5124000;28;19942;-46
2023/09/20 00:19:55;;;;;;;;;;;23.50;75.60;;;;;;5123988;28;20647;-46
2023/09/20 00:22:21;;;;;;;;;;;23.50;75.80;;;;;;5124403;28;19915;-46
2023/09/20 00:24:46;;;;;;;;;;;23.50;76.00;;;;;;5115524;28;19981;-46
2023/09/20 00:27:12;;;;;;;;;;;23.50;76.10;;;;;;5124439;28;19915;-45
2023/09/20 00:29:38;;;;;;;;;;;23.50;76.20;;;;;;5124184;28;19912;-45
2023/09/20 00:32:05;;;;;;;;;;;23.50;76.20;;;;;;5124126;28;19918;-46
2023/09/20 00:34:31;;;;;;;;;;;23.50;76.20;;;;;;5124307;28;19912;-46
2023/09/20 00:36:57;;;;;;;;;;;23.50;76.20;;;;;;5123897;28;19922;-46
2023/09/20 00:39:23;;;;;;;;;;;23.50;76.20;;;;;;5123928;28;19954;-46
2023/09/20 00:41:49;;;;;;;;;;;23.50;76.10;;;;;;5123649;28;19919;-46
2023/09/20 00:44:15;;;;;;;;;;;23.50;75.90;;;;;;5116709;28;20115;-46
2023/09/20 00:46:42;;;;;;;;;;;23.50;75.80;;;;;;5123739;28;20423;-46
2023/09/20 00:49:08;;;;;;;;;;;23.50;75.80;;;;;;5123257;28;19923;-46
2023/09/20 00:51:34;;;;;;;;;;;23.50;75.70;;;;;;5123805;28;19918;-46
2023/09/20 00:54:04;;;;;;;;;;;23.40;75.60;;;;;;5123347;28;19943;-46
2023/09/20 00:56:30;;;;;;;;;;;23.40;75.60;;;;;;5123694;28;19919;-45
2023/09/20 00:58:56;;;;;;;;;;;23.40;75.70;;;;;;5156020;27;19915;-46
2023/09/20 01:01:22;;;;;;;;;;;23.40;75.70;;;;;;5123790;28;19914;-47
2023/09/20 01:03:48;;;;;;;;;;;23.40;75.70;;;;;;5123502;28;19911;-46
2023/09/20 01:06:15;;;;;;;;;;;23.40;75.80;;;;;;5123455;28;19912;-46
2023/09/20 01:08:41;;;;;;;;;;;23.40;76.00;;;;;;5122016;28;19916;-46
2023/09/20 01:11:09;;;;;;;;;;;23.40;75.90;;;;;;5122879;28;19938;-46
2023/09/20 01:13:35;;;;;;;;;;;23.40;75.90;;;;;;5123640;28;19908;-47
2023/09/20 01:16:04;;;;;;;;;;;23.40;75.80;;;;;;5122869;28;19914;-46
2023/09/20 01:18:30;;;;;;;;;;;23.30;75.60;;;;;;5123230;28;19919;-48
2023/09/20 01:20:56;;;;;;;;;;;23.30;75.20;;;;;;5123384;28;20344;-47
2023/09/20 01:23:22;;;;;;;;;;;23.30;75.20;;;;;;5124067;28;19908;-47
2023/09/20 01:25:48;;;;;;;;;;;23.30;75.10;;;;;;5122824;28;19911;-48
2023/09/20 01:28:14;;;;;;;;;;;23.30;75.00;;;;;;5121224;28;19933;-46
2023/09/20 01:30:41;;;;;;;;;;;23.30;74.90;;;;;;5121466;28;19908;-48
2023/09/20 01:33:07;;;;;;;;;;;23.30;74.90;;;;;;5116853;28;19966;-47
2023/09/20 01:35:33;;;;;;;;;;;23.30;75.00;;;;;;5123732;28;19911;-45
2023/09/20 01:37:59;;;;;;;;;;;23.30;75.00;;;;;;5127328;28;19912;-45
2023/09/20 01:40:33;;;;;;;;;;;23.30;75.30;;;;;;5127384;28;19929;-46
2023/09/20 01:43:06;;;;;;;;;;;23.30;75.40;;;;;;5126809;28;19915;-49
2023/09/20 01:45:34;;;;;;;;;;;23.30;75.60;;;;;;5127556;28;20389;-45
2023/09/20 01:48:00;;;;;;;;;;;23.30;75.50;;;;;;5127377;28;19967;-46
2023/09/20 01:50:26;;;;;;;;;;;23.20;75.50;;;;;;5126917;28;19911;-46
2023/09/20 01:52:53;;;;;;;;;;;23.20;75.50;;;;;;5126512;27;19915;-45
2023/09/20 01:55:22;;;;;;;;;;;23.20;75.60;;;;;;5118345;28;19955;-45
2023/09/20 01:57:49;;;;;;;;;;;23.20;75.20;;;;;;5126363;28;19919;-45
2023/09/20 02:00:28;;;;;;;;;;;23.20;75.30;;;;;;5126147;27;19943;-46
2023/09/20 02:02:55;;;;;;;;;;;23.20;75.20;;;;;;5126619;28;19990;-47
2023/09/20 02:05:23;;;;;;;;;;;23.20;75.00;;;;;;5126816;28;19907;-46
2023/09/20 02:07:50;;;;;;;;;;;23.20;75.10;;;;;;5126465;28;19941;-47
2023/09/20 02:10:19;;;;;;;;;;;23.20;75.10;;;;;;5126465;28;20011;-46
2023/09/20 02:12:51;;;;;;;;;;;23.20;75.20;;;;;;5126663;28;19915;-46
2023/09/20 02:15:17;;;;;;;;;;;23.20;75.10;;;;;;5126339;28;20372;-45
2023/09/20 02:17:44;;;;;;;;;;;23.10;75.20;;;;;;5126623;28;19990;-46
2023/09/20 02:20:11;;;;;;;;;;;23.10;75.40;;;;;;5126298;28;19908;-45
2023/09/20 02:22:37;;;;;;;;;;;23.10;75.30;;;;;;5126872;28;19915;-46
2023/09/20 02:25:10;;;;;;;;;;;23.10;75.50;;;;;;5126345;28;19922;-45
2023/09/20 02:27:36;;;;;;;;;;;23.10;75.30;;;;;;5126776;28;19982;-46
2023/09/20 02:30:03;;;;;;;;;;;23.10;75.40;;;;;;5125927;27;19998;-46
2023/09/20 02:32:31;;;;;;;;;;;23.10;75.40;;;;;;5125156;28;20284;-46
2023/09/20 02:34:59;;;;;;;;;;;23.10;75.40;;;;;;5126131;28;19912;-47
2023/09/20 02:37:25;;;;;;;;;;;23.00;75.50;;;;;;5126175;28;19998;-47
2023/09/20 02:39:51;;;;;;;;;;;23.00;75.40;;;;;;5125600;28;19990;-48
2023/09/20 02:42:19;;;;;;;;;;;23.00;75.30;;;;;;5126120;28;19907;-47
2023/09/20 02:44:45;;;;;;;;;;;23.00;75.40;;;;;;5124501;28;19911;-47
2023/09/20 02:47:11;;;;;;;;;;;23.00;75.30;;;;;;5124942;28;19918;-48
2023/09/20 02:49:40;;;;;;;;;;;23.00;75.30;;;;;;5125223;28;19912;-46
2023/09/20 02:52:07;;;;;;;;;;;23.00;75.40;;;;;;5125652;28;19914;-46
2023/09/20 02:54:33;;;;;;;;;;;22.90;76.10;;;;;;5126218;27;19942;-47
2023/09/20 02:56:59;;;;;;;;;;;22.90;75.40;;;;;;5124749;28;19927;-46
2023/09/20 02:59:25;;;;;;;;;;;22.90;75.50;;;;;;5125931;28;20011;-45
2023/09/20 03:01:52;;;;;;;;;;;22.90;75.60;;;;;;5123786;28;20291;-46
2023/09/20 03:04:18;;;;;;;;;;;22.90;75.70;;;;;;5126052;28;19912;-47
2023/09/20 03:06:44;;;;;;;;;;;22.90;75.60;;;;;;5125833;28;20043;-45
2023/09/20 03:09:10;;;;;;;;;;;22.90;75.70;;;;;;5125105;28;19927;-46
2023/09/20 03:11:37;;;;;;;;;;;22.90;75.70;;;;;;5125417;28;19915;-48
2023/09/20 03:14:08;;;;;;;;;;;22.90;75.60;;;;;;5125223;28;19918;-46
2023/09/20 03:16:34;;;;;;;;;;;22.80;75.60;;;;;;5125623;28;19911;-47
2023/09/20 03:19:01;;;;;;;;;;;22.80;75.70;;;;;;5125171;28;19912;-46
2023/09/20 03:21:28;;;;;;;;;;;22.80;75.70;;;;;;5125741;27;19957;-47
2023/09/20 03:23:55;;;;;;;;;;;22.80;75.50;;;;;;5124439;28;19912;-47
2023/09/20 03:26:21;;;;;;;;;;;22.80;75.70;;;;;;5118196;28;19927;-46
2023/09/20 03:28:48;;;;;;;;;;;22.80;75.50;;;;;;5123104;28;19916;-46
2023/09/20 03:31:15;;;;;;;;;;;22.80;75.70;;;;;;5122077;28;19919;-46
2023/09/20 03:33:42;;;;;;;;;;;22.80;75.70;;;;;;5122191;28;19907;-46
2023/09/20 03:36:15;;;;;;;;;;;22.80;75.70;;;;;;5124449;28;20334;-47
2023/09/20 03:38:41;;;;;;;;;;;22.80;75.90;;;;;;5124771;28;19946;-46
2023/09/20 03:41:07;;;;;;;;;;;22.70;75.80;;;;;;5123218;28;19916;-46
2023/09/20 03:43:33;;;;;;;;;;;22.70;75.90;;;;;;5124402;28;19919;-46
2023/09/20 03:46:01;;;;;;;;;;;22.70;76.10;;;;;;5124736;28;19918;-46
2023/09/20 03:48:27;;;;;;;;;;;22.70;75.90;;;;;;5123099;28;19923;-46
2023/09/20 03:50:53;;;;;;;;;;;22.70;76.00;;;;;;5120900;28;20332;-46
2023/09/20 03:53:19;;;;;;;;;;;22.70;75.90;;;;;;5124772;28;19912;-46
2023/09/20 03:55:48;;;;;;;;;;;22.70;75.80;;;;;;5124491;28;20821;-46
2023/09/20 03:58:15;;;;;;;;;;;22.70;75.80;;;;;;5123975;28;19922;-46
2023/09/20 04:00:42;;;;;;;;;;;22.70;75.80;;;;;;5123660;28;19911;-46
2023/09/20 04:03:08;;;;;;;;;;;22.60;75.80;;;;;;5124281;28;19923;-46
2023/09/20 04:05:35;;;;;;;;;;;22.60;75.80;;;;;;5124030;28;19933;-45
2023/09/20 04:08:03;;;;;;;;;;;22.60;75.70;;;;;;5123935;28;20374;-46
2023/09/20 04:10:29;;;;;;;;;;;22.60;75.80;;;;;;5124001;28;19943;-46
2023/09/20 04:12:55;;;;;;;;;;;22.60;75.80;;;;;;5124155;28;19908;-46
2023/09/20 04:15:23;;;;;;;;;;;22.60;75.90;;;;;;5124825;28;19943;-46
2023/09/20 04:17:49;;;;;;;;;;;22.60;76.00;;;;;;5123856;28;19975;-47
2023/09/20 04:20:16;;;;;;;;;;;22.60;76.00;;;;;;5123263;28;19919;-46
2023/09/20 04:22:42;;;;;;;;;;;22.50;76.10;;;;;;5123723;28;19911;-46
2023/09/20 04:25:10;;;;;;;;;;;22.50;76.10;;;;;;5123426;28;19916;-46
2023/09/20 04:27:36;;;;;;;;;;;22.50;76.20;;;;;;5124475;28;19931;-47
2023/09/20 04:30:03;;;;;;;;;;;22.50;76.10;;;;;;5123582;27;19908;-46
2023/09/20 04:32:29;;;;;;;;;;;22.50;76.20;;;;;;5122095;28;19911;-46
2023/09/20 04:34:56;;;;;;;;;;;22.50;76.20;;;;;;5123199;28;19951;-45
2023/09/20 04:37:23;;;;;;;;;;;22.50;76.90;;;;;;5123568;28;19908;-47
2023/09/20 04:39:49;;;;;;;;;;;22.50;76.20;;;;;;5124099;28;20636;-46
2023/09/20 04:42:15;;;;;;;;;;;22.50;76.10;;;;;;5156031;27;19943;-45
2023/09/20 04:44:41;;;;;;;;;;;22.40;76.00;;;;;;5123761;28;19915;-45
2023/09/20 04:47:07;;;;;;;;;;;22.40;76.10;;;;;;5122465;28;20016;-45
2023/09/20 04:49:33;;;;;;;;;;;22.40;76.00;;;;;;5123440;28;20673;-46
2023/09/20 04:52:04;;;;;;;;;;;22.40;76.10;;;;;;5122672;28;20431;-45
2023/09/20 04:54:30;;;;;;;;;;;22.40;76.20;;;;;;5124093;28;19912;-47
2023/09/20 04:56:56;;;;;;;;;;;22.40;76.30;;;;;;5122571;28;19919;-46
2023/09/20 04:59:23;;;;;;;;;;;22.40;76.30;;;;;;5123664;28;19946;-46
2023/09/20 05:01:52;;;;;;;;;;;22.40;76.40;;;;;;5123356;28;19911;-46
2023/09/20 05:04:19;;;;;;;;;;;22.30;76.40;;;;;;5123599;28;19914;-45
2023/09/20 05:06:45;;;;;;;;;;;22.40;76.30;;;;;;5123665;28;20329;-46
2023/09/20 05:09:12;;;;;;;;;;;22.30;76.30;;;;;;5123168;28;19946;-48
2023/09/20 05:11:38;;;;;;;;;;;22.30;76.40;;;;;;5122465;28;20352;-46
2023/09/20 05:14:06;;;;;;;;;;;22.30;76.50;;;;;;5123208;28;20683;-46
2023/09/20 05:16:32;;;;;;;;;;;22.30;76.40;;;;;;5123162;28;19907;-45
2023/09/20 05:18:58;;;;;;;;;;;22.30;76.50;;;;;;5122684;28;19915;-47
2023/09/20 05:21:24;;;;;;;;;;;22.30;76.50;;;;;;5122720;28;19912;-45
2023/09/20 05:23:50;;;;;;;;;;;22.20;76.50;;;;;;5119782;28;19908;-46
2023/09/20 05:26:18;;;;;;;;;;;22.20;76.40;;;;;;5120300;28;19926;-46
2023/09/20 05:28:44;;;;;;;;;;;22.30;76.50;;;;;;5122587;28;19919;-46
2023/09/20 05:31:10;;;;;;;;;;;22.20;76.40;;;;;;5122784;28;19930;-46
2023/09/20 05:33:36;;;;;;;;;;;22.20;76.50;;;;;;5123360;28;19915;-47
2023/09/20 05:36:05;;;;;;;;;;;22.20;76.60;;;;;;5122730;28;19908;-45
2023/09/20 05:38:31;;;;;;;;;;;22.20;76.60;;;;;;5121040;28;19983;-45
2023/09/20 05:40:57;;;;;;;;;;;22.20;76.60;;;;;;5120961;28;19911;-45
2023/09/20 05:43:23;;;;;;;;;;;22.20;76.60;;;;;;5120659;28;20367;-45
2023/09/20 05:45:49;;;;;;;;;;;22.20;76.60;;;;;;5123068;28;20008;-47
2023/09/20 05:48:16;;;;;;;;;;;22.20;76.70;;;;;;5122783;28;19928;-45
2023/09/20 05:50:42;;;;;;;;;;;22.20;76.70;;;;;;5123559;28;19920;-45
2023/09/20 05:53:11;;;;;;;;;;;22.10;76.60;;;;;;5122669;28;19991;-45
2023/09/20 05:55:37;;;;;;;;;;;22.10;76.60;;;;;;5122419;28;19915;-45
2023/09/20 05:58:03;;;;;;;;;;;22.10;76.70;;;;;;5114815;28;19980;-45
2023/09/20 06:00:29;;;;;;;;;;;22.10;76.70;;;;;;5116078;28;19912;-45
2023/09/20 06:02:57;;;;;;;;;;;22.10;76.70;;;;;;5115870;28;19912;-46
2023/09/20 06:05:24;;;;;;;;;;;22.10;77.50;;;;;;5122931;28;19977;-45
2023/09/20 06:07:51;;;;;;;;;;;22.10;76.80;;;;;;5122773;28;19911;-45
2023/09/20 06:10:18;;;;;;;;;;;22.10;76.80;;;;;;5113378;28;19912;-46
2023/09/20 06:12:45;;;;;;;;;;;22.10;76.80;;;;;;5116742;28;19931;-47
2023/09/20 06:15:13;;;;;;;;;;;22.10;76.90;;;;;;5137583;27;19908;-45
2023/09/20 06:17:39;;;;;;;;;;;22.00;76.80;;;;;;5123121;28;19923;-46
2023/09/20 06:20:09;;;;;;;;;;;22.00;76.80;;;;;;5122005;28;19908;-45
2023/09/20 06:22:35;;;;;;;;;;;22.00;76.80;;;;;;5123158;28;19994;-46
2023/09/20 06:25:04;;;;;;;;;;;22.00;76.80;;;;;;5124867;28;19908;-46
2023/09/20 06:27:30;;;;;;;;;;;22.00;76.80;;;;;;5126051;28;19919;-46
2023/09/20 06:29:59;;;;;;;;;;;22.00;76.90;;;;;;5125102;28;19915;-46
2023/09/20 06:32:25;;;;;;;;;;;22.00;76.90;;;;;;5125925;28;19915;-45
2023/09/20 06:34:51;;;;;;;;;;;22.00;76.90;;;;;;5125377;28;19912;-47
2023/09/20 06:37:17;;;;;;;;;;;22.00;76.90;;;;;;5118645;28;19912;-46
2023/09/20 06:39:44;;;;;;;;;;;22.00;76.90;;;;;;5125261;28;19915;-45
2023/09/20 06:42:10;;;;;;;;;;;22.00;76.90;;;;;;5118518;28;19912;-45
2023/09/20 06:44:38;;;;;;;;;;;21.90;76.90;;;;;;5119090;28;20248;-46
2023/09/20 06:47:08;;;;;;;;;;;22.00;77.10;;;;;;5126217;28;20327;-48
2023/09/20 06:49:34;;;;;;;;;;;21.90;77.00;;;;;;5125463;28;19922;-46
2023/09/20 06:52:03;;;;;;;;;;;21.90;77.00;;;;;;5125339;28;19912;-45
2023/09/20 06:54:30;;;;;;;;;;;21.90;77.00;;;;;;5126038;28;19911;-46
2023/09/20 06:57:02;;;;;;;;;;;21.90;77.00;;;;;;5124157;28;19934;-44
2023/09/20 06:59:29;;;;;;;;;;;21.90;76.90;;;;;;5125469;28;19942;-45
2023/09/20 07:01:55;;;;;;;;;;;21.90;77.00;;;;;;5119541;28;19967;-46
2023/09/20 07:04:21;;;;;;;;;;;21.90;77.00;;;;;;5121115;28;19912;-46
2023/09/20 07:06:47;;;;;;;;;;;21.90;77.10;;;;;;5114216;28;19908;-46
2023/09/20 07:09:13;;;;;;;;;;;21.90;77.10;;;;;;5124319;28;20421;-47
2023/09/20 07:11:39;;;;;;;;;;;21.90;77.10;;;;;;5124787;28;20472;-46
2023/09/20 07:14:08;;;;;;;;;;;21.90;77.10;;;;;;5117269;28;19912;-45
2023/09/20 07:16:36;;;;;;;;;;;21.80;77.10;;;;;;5124870;28;19919;-45
2023/09/20 07:19:05;;;;;;;;;;;21.80;77.20;;;;;;5124426;28;19907;-45
2023/09/20 07:21:37;;;;;;;;;;;21.80;77.10;;;;;;5117789;28;19915;-46
2023/09/20 07:24:03;;;;;;;;;;;21.80;77.10;;;;;;5114559;28;19908;-44
2023/09/20 07:26:32;;;;;;;;;;;21.80;77.10;;;;;;5125994;27;19919;-47
2023/09/20 07:28:58;;;;;;;;;;;21.80;77.20;;;;;;5124485;28;20007;-44
2023/09/20 07:31:26;;;;;;;;;;;21.80;77.20;;;;;;5125076;28;19912;-45
2023/09/20 07:33:54;;;;;;;;;;;21.80;77.20;;;;;;5124777;28;19947;-46
2023/09/20 07:36:22;;;;;;;;;;;21.80;77.10;;;;;;5117692;28;19968;-46
2023/09/20 07:38:48;;;;;;;;;;;21.80;77.20;;;;;;5124221;28;19918;-45
2023/09/20 07:41:17;;;;;;;;;;;21.80;77.20;;;;;;5121511;27;19975;-45
2023/09/20 07:43:47;;;;;;;;;;;21.70;77.10;;;;;;5121855;28;19908;-45
2023/09/20 07:46:13;;;;;;;;;;;21.80;77.30;;;;;;5123669;28;20040;-49
2023/09/20 07:48:50;;;;;;;;;;;21.70;77.10;;;;;;5125508;28;20056;-46
2023/09/20 07:51:23;;;;;;;;;;;21.70;77.10;;;;;;5124076;28;19911;-47
2023/09/20 07:53:53;;;;;;;;;;;21.70;77.20;;;;;;5124604;28;20331;-46
2023/09/20 07:56:20;;;;;;;;;;;21.70;77.20;;;;;;5124579;28;19965;-46
2023/09/20 07:58:46;;;;;;;;;;;21.70;77.20;;;;;;5123835;28;19915;-45
2023/09/20 08:01:21;;;;;;;;;;;21.70;77.30;;;;;;5124478;28;19912;-46
2023/09/20 08:03:50;;;;;;;;;;;21.70;78.00;;;;;;5124836;28;19911;-46
2023/09/20 08:06:17;;;;;;;;;;;21.70;77.20;;;;;;5108552;28;19912;-46
2023/09/20 08:08:43;;;;;;;;;;;21.70;77.30;;;;;;5124517;28;19920;-45
2023/09/20 08:11:09;;;;;;;;;;;21.70;77.30;;;;;;5123287;28;19923;-46
2023/09/20 08:13:35;;;;;;;;;;;21.60;77.30;;;;;;5124724;27;19914;-46
2023/09/20 08:16:04;;;;;;;;;;;21.60;77.30;;;;;;5123432;28;19911;-45
2023/09/20 08:21:14;;;;;;;;;;;21.60;77.20;;;;;;5123913;28;19919;-47
2023/09/20 09:02:12;;;;;;;;;;;21.50;77.40;;;;;;5151266;27;19919;-45
2023/09/20 09:04:38;;;;;;;;;;;21.50;77.40;;;;;;5123684;28;19919;-45
2023/09/20 09:07:05;;;;;;;;;;;21.50;77.40;;;;;;5122963;28;19911;-45
2023/09/20 09:09:31;;;;;;;;;;;21.50;77.50;;;;;;5123984;28;19912;-45
2023/09/20 09:11:57;;;;;;;;;;;21.50;77.50;;;;;;5122499;28;19981;-45
2023/09/20 09:14:24;;;;;;;;;;;21.50;77.50;;;;;;5122931;28;19951;-45
2023/09/20 09:16:51;;;;;;;;;;;21.40;77.50;;;;;;5121767;28;19907;-46
2023/09/20 09:19:17;;;;;;;;;;;21.40;77.50;;;;;;5146432;27;19919;-44
2023/09/20 09:21:43;;;;;;;;;;;21.40;77.50;;;;;;5123005;28;19908;-45
2023/09/20 09:24:09;;;;;;;;;;;21.40;77.50;;;;;;5123147;28;19915;-44
2023/09/20 09:26:35;;;;;;;;;;;21.40;77.60;;;;;;5123047;28;19915;-43
2023/09/20 09:29:02;;;;;;;;;;;21.40;77.60;;;;;;5122894;28;19923;-45
2023/09/20 09:31:29;;;;;;;;;;;21.40;77.50;;;;;;5122696;28;19971;-44
2023/09/20 09:33:58;;;;;;;;;;;21.40;77.60;;;;;;5121509;28;19918;-44
2023/09/20 09:36:24;;;;;;;;;;;21.40;77.60;;;;;;5114042;28;19912;-44
2023/09/20 09:38:50;;;;;;;;;;;21.30;77.50;;;;;;5122757;28;20340;-45
2023/09/20 09:41:18;;;;;;;;;;;21.40;77.60;;;;;;5122417;28;20455;-44
2023/09/20 09:43:44;;;;;;;;;;;21.30;77.50;;;;;;5122628;28;19947;-44
2023/09/20 09:46:11;;;;;;;;;;;21.30;77.50;;;;;;5119731;28;19951;-44
2023/09/20 09:48:37;;;;;;;;;;;21.30;77.60;;;;;;5123476;28;19920;-44
2023/09/20 09:51:23;;;;;;;;;;;21.30;77.60;;;;;;5122551;28;19976;-44
2023/09/20 09:53:49;;;;;;;;;;;21.30;77.60;;;;;;5099832;28;19911;-45
2023/09/20 09:56:15;;;;;;;;;;;21.30;77.70;;;;;;5099777;28;19920;-44
2023/09/20 09:58:41;;;;;;;;;;;21.30;77.60;;;;;;5103927;28;19915;-46
2023/09/20 10:01:07;;;;;;;;;;;21.30;77.60;;;;;;5103497;28;19907;-44
2023/09/20 10:03:34;;;;;;;;;;;21.30;77.60;;;;;;5103999;28;20027;-44
2023/09/20 10:06:08;;;;;;;;;;;21.30;77.60;;;;;;5103636;28;19951;-44
2023/09/20 10:08:40;;;;;;;;;;;21.20;77.60;;;;;;5104268;28;19927;-45
2023/09/20 10:11:09;;;;;;;;;;;21.30;77.70;;;;;;5103679;28;20245;-44
2023/09/20 10:13:36;;;;;;;;;;;21.20;77.60;;;;;;5104136;28;20028;-44
2023/09/20 10:16:05;;;;;;;;;;;21.20;77.60;;;;;;5103222;28;19908;-44
2023/09/20 10:18:32;;;;;;;;;;;21.20;77.60;;;;;;5103014;28;19912;-45
2023/09/20 10:21:04;;;;;;;;;;;21.20;77.60;;;;;;5103316;28;19938;-45
2023/09/20 10:23:34;;;;;;;;;;;21.20;77.60;;;;;;5103587;28;19912;-47
2023/09/20 10:26:00;;;;;;;;;;;21.20;77.70;;;;;;5086680;28;19912;-45
2023/09/20 10:28:26;;;;;;;;;;;21.20;77.60;;;;;;5103549;28;19916;-45
2023/09/20 10:30:55;;;;;;;;;;;21.20;77.70;;;;;;5095922;28;19915;-45
2023/09/20 10:33:57;;;;;;;;;;;21.20;77.70;;;;;;5121518;28;19922;-44
2023/09/20 10:36:24;;;;;;;;;;;21.10;77.70;;;;;;5122058;28;19908;-44
2023/09/20 10:39:09;;;;;;;;;;;21.10;77.70;;;;;;5125737;28;19908;-44
2023/09/20 10:41:39;;;;;;;;;;;21.10;77.70;;;;;;5120670;28;19929;-43
2023/09/20 10:44:05;;;;;;;;;;;21.10;77.80;;;;;;5125573;28;19929;-43
2023/09/20 10:46:34;;;;;;;;;;;21.10;77.80;;;;;;5111981;28;19983;-45
2023/09/20 10:49:00;;;;;;;;;;;21.10;77.80;;;;;;5123577;28;19925;-45
2023/09/20 10:51:38;;;;;;;;;;;21.10;77.80;;;;;;5125877;28;19947;-44
2023/09/20 10:54:25;;;;;;;;;;;21.10;77.80;;;;;;5125335;28;19955;-44
2023/09/20 10:56:51;;;;;;;;;;;21.10;77.80;;;;;;5125717;28;19924;-44
2023/09/20 10:59:17;;;;;;;;;;;21.10;77.80;;;;;;5125098;28;19912;-44
2023/09/20 11:01:50;;;;;;;;;;;21.10;77.80;;;;;;5125014;28;19954;-43
2023/09/20 11:04:16;;;;;;;;;;;21.00;77.80;;;;;;5124543;28;19911;-43
2023/09/20 11:06:48;;;;;;;;;;;21.00;77.80;;;;;;5125495;28;19998;-44
2023/09/20 11:09:14;;;;;;;;;;;21.00;77.90;;;;;;5122849;28;19920;-44
2023/09/20 11:11:41;;;;;;;;;;;21.00;77.90;;;;;;5125420;27;19907;-44
2023/09/20 11:14:08;;;;;;;;;;;21.00;77.90;;;;;;5124751;28;20006;-43
2023/09/20 11:16:34;;;;;;;;;;;21.00;77.90;;;;;;5122092;28;19966;-44
2023/09/20 11:19:01;;;;;;;;;;;21.00;77.90;;;;;;5125404;28;19908;-43
2023/09/20 11:21:27;;;;;;;;;;;20.90;77.80;;;;;;5125777;28;19918;-43
2023/09/20 11:23:53;;;;;;;;;;;21.00;77.90;;;;;;5124731;28;19908;-43
2023/09/20 11:26:28;;;;;;;;;;;21.00;78.00;;;;;;5115859;28;19919;-44
2023/09/20 11:28:54;;;;;;;;;;;20.90;77.80;;;;;;5125235;28;19991;-44
2023/09/20 11:31:30;;;;;;;;;;;20.90;77.90;;;;;;5124215;28;20356;-44
2023/09/20 11:34:00;;;;;;;;;;;20.90;77.90;;;;;;5124547;28;19911;-45
2023/09/20 11:36:26;;;;;;;;;;;20.90;77.90;;;;;;5122612;28;19916;-44
2023/09/20 11:38:53;;;;;;;;;;;20.90;77.90;;;;;;5125054;27;19912;-44
2023/09/20 11:41:26;;;;;;;;;;;20.90;77.90;;;;;;5125074;28;20053;-44
2023/09/20 11:44:02;;;;;;;;;;;20.90;77.90;;;;;;5124928;28;20001;-44
2023/09/20 11:46:33;;;;;;;;;;;20.90;77.90;;;;;;5121433;28;19915;-44
2023/09/20 11:48:59;;;;;;;;;;;20.90;77.90;;;;;;5115613;28;20416;-44
2023/09/20 11:51:25;;;;;;;;;;;20.90;78.00;;;;;;5125198;28;19908;-45
2023/09/20 11:53:51;;;;;;;;;;;20.90;78.00;;;;;;5124511;28;20010;-44
2023/09/20 11:56:29;;;;;;;;;;;20.90;78.10;;;;;;5124324;28;19920;-44
2023/09/20 11:58:59;;;;;;;;;;;20.80;78.00;;;;;;5122571;28;20375;-45
2023/09/20 12:01:25;;;;;;;;;;;20.80;78.00;;;;;;5118094;28;19933;-46
2023/09/20 12:03:51;;;;;;;;;;;20.80;78.00;;;;;;5124313;28;19929;-44
2023/09/20 12:06:18;;;;;;;;;;;20.80;78.00;;;;;;5124608;28;19937;-43
2023/09/20 12:08:44;;;;;;;;;;;20.80;78.00;;;;;;5124750;28;19919;-44
2023/09/20 12:11:10;;;;;;;;;;;20.80;78.00;;;;;;5123959;27;19999;-44
2023/09/20 12:13:36;;;;;;;;;;;20.80;78.10;;;;;;5124308;28;19915;-45
2023/09/20 12:16:02;;;;;;;;;;;20.80;78.10;;;;;;5123938;28;19908;-44
2023/09/20 12:18:28;;;;;;;;;;;20.80;78.10;;;;;;5124569;28;19916;-44
2023/09/20 12:20:55;;;;;;;;;;;20.80;78.10;;;;;;5124551;27;19911;-44
2023/09/20 12:23:21;;;;;;;;;;;20.80;78.10;;;;;;5115811;28;19960;-44
2023/09/20 12:25:46;;;;;;;;;;;20.80;78.10;;;;;;5124105;28;19919;-44
2023/09/20 12:28:12;;;;;;;;;;;20.80;78.20;;;;;;5115874;28;19919;-44
2023/09/20 12:30:39;;;;;;;;;;;20.70;78.20;;;;;;5124513;28;19918;-45
2023/09/20 12:33:07;;;;;;;;;;;20.70;78.10;;;;;;5123612;28;19908;-44
2023/09/20 12:35:33;;;;;;;;;;;20.70;78.20;;;;;;5123866;28;20014;-45
2023/09/20 12:38:01;;;;;;;;;;;20.70;78.20;;;;;;5123522;28;20253;-43
2023/09/20 12:40:27;;;;;;;;;;;20.70;78.20;;;;;;5123686;28;19971;-45
2023/09/20 12:42:53;;;;;;;;;;;20.70;78.20;;;;;;5123934;28;19929;-44
2023/09/20 12:45:19;;;;;;;;;;;20.70;78.20;;;;;;5123897;28;19912;-44
2023/09/20 12:47:45;;;;;;;;;;;20.70;78.20;;;;;;5123594;28;19915;-44
2023/09/20 12:50:14;;;;;;;;;;;20.70;78.20;;;;;;5122838;28;19918;-44
2023/09/20 12:52:42;;;;;;;;;;;20.70;78.30;;;;;;5115376;28;19907;-45
2023/09/20 12:55:10;;;;;;;;;;;20.70;78.30;;;;;;5115192;28;19907;-44
2023/09/20 12:57:38;;;;;;;;;;;20.70;78.30;;;;;;5108631;28;19924;-45
2023/09/20 13:00:08;;;;;;;;;;;20.70;78.30;;;;;;5121700;28;19938;-44
2023/09/20 13:02:34;;;;;;;;;;;20.70;78.40;;;;;;5123497;28;19912;-45
2023/09/20 13:05:00;;;;;;;;;;;20.70;78.40;;;;;;5121823;28;19914;-44
2023/09/20 13:07:29;;;;;;;;;;;20.70;78.40;;;;;;5116591;28;20386;-44
2023/09/20 13:09:57;;;;;;;;;;;20.70;78.40;;;;;;5117702;28;19926;-48
2023/09/20 13:12:23;;;;;;;;;;;20.70;78.40;;;;;;5123377;28;19907;-44
2023/09/20 13:14:49;;;;;;;;;;;20.70;78.50;;;;;;5123366;28;19912;-43
2023/09/20 13:17:15;;;;;;;;;;;20.60;78.40;;;;;;5123498;28;19912;-45
2023/09/20 13:19:41;;;;;;;;;;;20.60;78.40;;;;;;5123104;28;19907;-43
2023/09/20 13:22:09;;;;;;;;;;;20.60;78.50;;;;;;5123243;28;19916;-44
2023/09/20 13:24:35;;;;;;;;;;;20.60;78.40;;;;;;5123258;28;19911;-45
2023/09/20 13:27:02;;;;;;;;;;;20.60;78.50;;;;;;5122975;28;19918;-43
2023/09/20 13:29:28;;;;;;;;;;;20.70;78.60;;;;;;5123160;28;19986;-46
2023/09/20 13:31:54;;;;;;;;;;;20.60;78.50;;;;;;5122837;28;19911;-44
2023/09/20 13:34:22;;;;;;;;;;;20.60;78.60;;;;;;5127388;28;19911;-44
2023/09/20 13:36:48;;;;;;;;;;;20.60;78.60;;;;;;5127500;28;19911;-45
2023/09/20 13:39:18;;;;;;;;;;;20.60;78.60;;;;;;5127205;28;19919;-44
2023/09/20 13:41:45;;;;;;;;;;;20.60;78.60;;;;;;5126268;28;19923;-44
2023/09/20 13:44:10;;;;;;;;;;;20.60;78.60;;;;;;5120801;28;19958;-45
2023/09/20 13:46:39;;;;;;;;;;;20.60;78.60;;;;;;5125433;28;19911;-45
2023/09/20 13:49:08;;;;;;;;;;;20.60;78.70;;;;;;5124877;28;19995;-44
2023/09/20 13:51:35;;;;;;;;;;;20.60;78.70;;;;;;5127153;28;19912;-45
2023/09/20 13:54:00;;;;;;;;;;;20.60;78.70;;;;;;5126218;28;19968;-44
2023/09/20 13:56:28;;;;;;;;;;;20.60;78.70;;;;;;5126503;28;19951;-46
2023/09/20 13:58:54;;;;;;;;;;;20.60;78.70;;;;;;5126333;28;19912;-44
2023/09/20 14:01:21;;;;;;;;;;;20.60;78.80;;;;;;5126704;28;19907;-44
2023/09/20 14:03:47;;;;;;;;;;;20.60;78.80;;;;;;5126789;28;20022;-45
2023/09/20 14:06:13;;;;;;;;;;;20.60;78.80;;;;;;5126135;28;20641;-46
2023/09/20 14:08:39;;;;;;;;;;;20.60;78.90;;;;;;5126303;28;19920;-45
2023/09/20 14:11:07;;;;;;;;;;;20.60;78.90;;;;;;5125742;28;19943;-48
2023/09/20 14:13:32;;;;;;;;;;;20.60;78.90;;;;;;5126803;28;20213;-44
2023/09/20 14:15:58;;;;;;;;;;;20.60;79.00;;;;;;5126682;28;19946;-45
2023/09/20 14:18:24;;;;;;;;;;;20.60;79.00;;;;;;5126595;28;20287;-45
2023/09/20 14:20:51;;;;;;;;;;;20.70;79.10;;;;;;5125937;28;19907;-44
2023/09/20 14:23:17;;;;;;;;;;;20.70;79.00;;;;;;5126303;28;19930;-44
2023/09/20 14:25:43;;;;;;;;;;;20.70;79.00;;;;;;5126438;28;19912;-44
2023/09/20 14:28:09;;;;;;;;;;;20.70;78.90;;;;;;5126495;28;19920;-44
2023/09/20 14:30:37;;;;;;;;;;;20.70;78.90;;;;;;5126105;28;19908;-45
2023/09/20 14:33:02;;;;;;;;;;;20.70;78.90;;;;;;5126091;28;19986;-44
2023/09/20 14:35:28;;;;;;;;;;;20.70;79.00;;;;;;5126292;28;19927;-44
2023/09/20 14:37:54;;;;;;;;;;;20.70;79.00;;;;;;5126104;28;19907;-44
2023/09/20 14:40:21;;;;;;;;;;;20.70;79.00;;;;;;5126332;28;19908;-44
2023/09/20 14:42:48;;;;;;;;;;;20.70;79.00;;;;;;5126475;28;19912;-46
2023/09/20 14:45:16;;;;;;;;;;;20.70;79.00;;;;;;5120168;28;19911;-44
2023/09/20 14:47:44;;;;;;;;;;;20.70;79.20;;;;;;5123010;28;19919;-45
2023/09/20 14:50:14;;;;;;;;;;;20.70;79.80;;;;;;5125965;28;19937;-44
2023/09/20 14:52:40;;;;;;;;;;;20.80;79.20;;;;;;5125892;27;19921;-44
2023/09/20 14:55:07;;;;;;;;;;;20.70;79.10;;;;;;5125348;28;19908;-44
2023/09/20 14:57:33;;;;;;;;;;;20.80;79.30;;;;;;5125957;28;19946;-44